Clinton, WA

17:19 PST le 25 novembre 2014 (GMT -0800)
Campbell's Glen | Change Station
CLOSE
Current Station
Stations météorologiques personnelles
Location: Clinton, WA
Altitude: 418 ft
Stations météo à proximité

Alt. 418 ft 47.99 °N, 122.39 °W | Updated 4 minutes ago

Couvert
Couvert
46.2 ° F
Paraît 46 ° F
N
0.0
Vent Variable Vent de Nord
Gusts 0.0 mph

Aujourd'hui
Haut(e) -- | Bas -- ° F
--% Risque de précip.
Hier
Haut(e) -- | Bas -- ° F
Precip. -- pouce
7:30 AM 4:22 PM
Lune montante, 15% visible
Pression 30.15 pouce
Visibilité 1.5 Miles terrestres
Nuages Couvert 400 ft
Refroidissement éolien 46 ° F
Point de rosée 45 ° F
Humidité 97%
Précipitations 0.27 pouce
Profondeur de la couche neigeuse Non disponible.
UV 0 sur 12
Pollen .10 sur 12
Qualité de l'air Non disponible.
Flu Activity Non disponible.
METAR KPAE 260053Z 00000KT 1 1/2SM BR OVC004 08/07 A3014 RMK AO2 SLP210 T00780067

More Conditions Fewer Conditions

Pression 30.15 pouce
Visibilité 1.5 Miles terrestres
Nuages Couvert 400 ft
Refroidissement éolien 46 ° F
Point de rosée 45 ° F
Humidité 97%
Précipitations 0.27 pouce
Profondeur de la couche neigeuse Non disponible.
UV 0 sur 12
Pollen .10 sur 12
Qualité de l'air Non disponible.
Flu Activity Non disponible.
METAR KPAE 260053Z 00000KT 1 1/2SM BR OVC004 08/07 A3014 RMK AO2 SLP210 T00780067

More Conditions Fewer Conditions

10-Day Weather Forecast

Almanac

Astronomie

Nov. 25, 2014 Lever Coucher
Temps réel
Crépuscule civil
Crépuscule nautique
Crépuscule astronomique
Lune
Durée de lumière visible
Longueur du jour
Tomorrow will be .
, % of the Moon is Illuminated

Extrêmes aujourd'hui

State Highs State Lows

Community

WunderPhotos

Upload Photos

1,773,636 Photos téléchargées !

WunderBlogs® & News

Nearby

Qualité de l'air

  Qualité de l'air Indice de la qualité de l'air Polluant
Not available.

Épaisseur de neige

Station Depth Altitude

Activité sismique

Ville Distance Mag. Time & Date
Minimum magnitude displayed is 2.5.

Températures des eaux côtières

Lieu Température

Stations météo à proximité